Time;durP1;ratioP1;P1;durP2;ratioP2;P2;SDS_P1;SDS_P2;PMS_P1;PMS_P2;Temp;Humidity;BMP_temperature;BMP_pressure;BME280_temperature;BME280_humidity;BME280_pressure;Samples;Min_cycle;Max_cycle;Signal;HPM_P1;HPM_P2
2022/11/30 00:02:09;;;;;;;4.03;2.90;;;;;;;10.20;72.82;94765.53;4953227;29;20183;-84
2022/11/30 00:04:36;;;;;;;4.87;3.23;;;;;;;10.20;72.97;94762.19;4952863;29;20201;-84
2022/11/30 00:07:03;;;;;;;4.17;3.27;;;;;;;10.19;72.79;94761.38;4952523;29;20190;-83
2022/11/30 00:09:29;;;;;;;3.90;3.33;;;;;;;10.18;72.99;94762.28;4956808;28;20190;-84
2022/11/30 00:11:58;;;;;;;4.73;3.50;;;;;;;10.17;72.84;94767.53;4971578;28;20299;-86
2022/11/30 00:14:24;;;;;;;3.70;3.03;;;;;;;10.18;72.62;94767.41;4972072;28;20193;-84
2022/11/30 00:16:51;;;;;;;4.03;3.20;;;;;;;10.17;72.74;94768.34;4971741;28;20189;-84
2022/11/30 00:19:18;;;;;;;5.40;3.17;;;;;;;10.15;72.51;94762.56;4971386;28;20258;-83
2022/11/30 00:21:45;;;;;;;4.77;3.60;;;;;;;10.15;72.77;94765.13;4971507;28;21087;-84
2022/11/30 00:24:11;;;;;;;5.57;3.50;;;;;;;10.09;72.59;94764.84;4971578;28;20615;-84
2022/11/30 00:26:38;;;;;;;3.27;2.80;;;;;;;10.15;72.50;94770.25;4971318;28;20201;-82
2022/11/30 00:29:06;;;;;;;3.40;3.10;;;;;;;10.15;72.84;94774.56;4971583;28;20194;-86
2022/11/30 00:31:33;;;;;;;4.30;3.40;;;;;;;10.08;72.54;94764.03;4971439;28;20190;-83
2022/11/30 00:34:00;;;;;;;3.90;3.30;;;;;;;10.13;72.48;94774.66;4971696;28;20248;-83
2022/11/30 00:36:27;;;;;;;6.00;3.30;;;;;;;10.10;72.66;94774.91;4972071;28;20209;-83
2022/11/30 00:38:54;;;;;;;4.53;3.33;;;;;;;10.11;72.87;94781.66;4972040;28;20280;-84
2022/11/30 00:41:21;;;;;;;3.93;3.30;;;;;;;10.04;72.26;94765.25;4956219;28;20194;-85
2022/11/30 00:43:48;;;;;;;4.40;3.20;;;;;;;10.09;72.77;94775.88;4952732;29;20625;-83
2022/11/30 00:46:16;;;;;;;5.33;3.50;;;;;;;9.95;72.56;94748.16;4952451;29;20654;-82
2022/11/30 00:48:43;;;;;;;5.63;3.50;;;;;;;10.05;72.54;94770.22;4954002;28;20190;-82
2022/11/30 00:51:11;;;;;;;4.80;3.70;;;;;;;10.08;72.61;94764.03;4956092;29;20201;-84
2022/11/30 00:53:38;;;;;;;4.57;3.77;;;;;;;10.08;72.79;94770.91;4955707;29;20238;-85
2022/11/30 00:56:06;;;;;;;5.77;3.43;;;;;;;10.01;72.53;94757.84;4955676;29;20190;-84
2022/11/30 00:58:33;;;;;;;3.97;3.30;;;;;;;10.06;72.50;94758.28;4956104;29;20198;-82
2022/11/30 01:00:59;;;;;;;6.10;3.57;;;;;;;10.01;72.47;94750.97;4955865;29;20198;-85
2022/11/30 01:03:28;;;;;;;4.73;3.40;;;;;;;10.07;72.59;94766.75;4972996;28;20197;-86
2022/11/30 01:05:55;;;;;;;4.67;3.70;;;;;;;10.07;72.42;94761.63;4975676;28;20197;-85
2022/11/30 01:08:21;;;;;;;3.97;3.50;;;;;;;10.07;72.49;94759.06;4977198;28;20186;-83
2022/11/30 01:10:52;;;;;;;3.90;3.17;;;;;;;10.07;72.50;94756.53;4965240;28;20202;-81
2022/11/30 01:13:19;;;;;;;3.90;3.10;;;;;;;10.01;72.79;94750.16;4948237;29;20274;-79
2022/11/30 01:15:45;;;;;;;4.33;3.27;;;;;;;10.04;72.76;94758.38;4960131;29;20179;-82
2022/11/30 01:18:12;;;;;;;5.70;3.80;;;;;;;10.05;72.34;94761.75;4957720;29;20237;-79
2022/11/30 01:20:42;;;;;;;4.03;3.27;;;;;;;10.02;72.46;94751.81;4974642;29;20198;-82
2022/11/30 01:23:09;;;;;;;4.33;3.40;;;;;;;9.93;72.46;94734.69;4969598;29;20195;-82
2022/11/30 01:25:36;;;;;;;5.57;3.10;;;;;;;10.03;72.56;94753.41;4962922;29;20224;-86
2022/11/30 01:28:03;;;;;;;3.43;3.10;;;;;;;9.71;72.66;94702.53;4966786;29;20186;-82
2022/11/30 01:30:29;;;;;;;3.60;3.20;;;;;;;10.02;72.54;94752.63;4962817;29;20213;-81
2022/11/30 01:33:01;;;;;;;3.13;2.87;;;;;;;10.02;72.62;94752.63;4956168;29;20292;-84
2022/11/30 01:35:28;;;;;;;2.93;2.70;;;;;;;9.99;72.62;94755.41;4956036;29;20194;-84
2022/11/30 01:37:56;;;;;;;5.13;3.20;;;;;;;10.01;72.64;94750.97;4955911;29;20637;-82
2022/11/30 01:40:23;;;;;;;5.50;3.57;;;;;;;10.02;72.71;94754.38;4955759;29;20221;-83
2022/11/30 01:42:50;;;;;;;3.37;3.03;;;;;;;10.02;72.54;94756.91;4956184;29;20655;-81
2022/11/30 01:45:16;;;;;;;4.63;2.80;;;;;;;9.94;72.73;94742.25;4955138;29;20199;-83
2022/11/30 01:47:47;;;;;;;4.40;2.93;;;;;;;9.95;72.74;94751.50;4956819;29;20194;-83
2022/11/30 01:50:20;;;;;;;3.60;2.90;;;;;;;9.97;72.64;94754.75;4958418;29;20197;-83
2022/11/30 01:52:50;;;;;;;3.20;2.90;;;;;;;9.95;72.64;94751.50;4957744;29;20217;-79
2022/11/30 01:55:28;;;;;;;3.10;2.80;;;;;;;9.93;72.72;94752.56;4958021;29;20227;-80
2022/11/30 01:57:58;;;;;;;3.13;2.83;;;;;;;9.82;72.66;94727.16;4958489;29;20277;-85
2022/11/30 02:00:25;;;;;;;4.53;2.73;;;;;;;9.90;72.47;94743.44;4954964;28;20186;-85
2022/11/30 02:02:58;;;;;;;2.80;2.60;;;;;;;9.82;72.58;94725.41;4956000;29;20221;-82
2022/11/30 02:05:26;;;;;;;2.80;2.60;;;;;;;9.87;72.89;94736.03;4955307;28;20198;-85
2022/11/30 02:07:53;;;;;;;3.50;3.20;;;;;;;9.85;72.55;94737.13;4955493;29;20227;-86
2022/11/30 02:10:24;;;;;;;3.93;3.00;;;;;;;9.85;72.73;94737.13;4956348;29;20197;-85
2022/11/30 02:13:27;;;;;;;3.20;2.90;;;;;;;9.80;72.72;94725.56;4964067;29;20214;-83
2022/11/30 02:16:04;;;;;;;4.53;3.07;;;;;;;9.81;72.84;94721.25;4944749;29;20253;-84
2022/11/30 02:18:38;;;;;;;3.47;2.70;;;;;;;9.81;72.76;94723.81;4954574;28;20285;-84
2022/11/30 02:21:13;;;;;;;3.70;2.73;;;;;;;9.79;72.79;94716.25;4956852;29;20213;-85
2022/11/30 02:24:04;;;;;;;2.60;2.40;;;;;;;9.69;72.58;94707.00;4956276;29;20194;-85
2022/11/30 02:26:51;;;;;;;3.47;2.80;;;;;;;9.74;72.87;94718.41;4960042;29;20194;-85
2022/11/30 02:29:24;;;;;;;4.20;2.50;;;;;;;9.76;72.91;94719.09;4961023;29;20181;-85
2022/11/30 02:31:57;;;;;;;2.70;2.50;;;;;;;9.75;73.03;94720.00;4958070;29;20278;-85
2022/11/30 02:34:27;;;;;;;3.20;2.97;;;;;;;9.74;73.04;94718.41;4958970;29;20230;-80
2022/11/30 02:36:55;;;;;;;2.50;2.30;;;;;;;9.73;72.99;94710.88;4955635;29;20202;-85
2022/11/30 02:39:22;;;;;;;2.80;2.50;;;;;;;9.74;72.95;94718.41;4956722;29;20202;-84
2022/11/30 02:41:49;;;;;;;3.17;2.80;;;;;;;9.73;73.17;94713.44;4955844;29;20210;-80
2022/11/30 02:44:17;;;;;;;2.97;2.60;;;;;;;9.72;73.09;94710.09;4955737;29;20201;-85
2022/11/30 02:47:07;;;;;;;3.10;2.80;;;;;;;9.71;73.15;94711.00;4955413;29;20194;-84
2022/11/30 02:49:42;;;;;;;2.33;2.17;;;;;;;9.70;73.08;94708.59;4955503;29;20670;-85
2022/11/30 02:52:10;;;;;;;3.00;2.50;;;;;;;9.69;73.27;94710.34;4953841;28;20193;-84
2022/11/30 02:54:38;;;;;;;2.50;2.30;;;;;;;9.68;73.21;94713.84;4957243;29;20226;-84
2022/11/30 02:57:04;;;;;;;2.50;2.30;;;;;;;9.69;72.99;94720.56;4954965;29;20193;-85
2022/11/30 02:59:32;;;;;;;4.13;2.50;;;;;;;9.68;73.06;94713.03;4955025;29;20205;-87
2022/11/30 03:01:59;;;;;;;2.47;2.20;;;;;;;9.69;73.11;94722.31;4955617;29;20194;-82
2022/11/30 03:04:27;;;;;;;2.40;2.20;;;;;;;9.68;73.09;94725.81;4957022;29;20196;-82
2022/11/30 03:06:54;;;;;;;2.40;2.20;;;;;;;9.68;73.16;94725.81;4957945;29;20277;-84
2022/11/30 03:09:21;;;;;;;2.13;2.03;;;;;;;9.60;72.98;94712.88;4962996;29;20200;-84
2022/11/30 03:11:47;;;;;;;1.90;1.80;;;;;;;9.67;73.22;94725.00;4970938;28;20206;-82
2022/11/30 03:14:14;;;;;;;2.00;1.90;;;;;;;9.68;73.11;94725.81;4976174;28;20237;-80
2022/11/30 03:16:42;;;;;;;2.10;2.00;;;;;;;9.68;73.01;94728.34;4976888;29;20182;-78
2022/11/30 03:19:09;;;;;;;1.97;1.87;;;;;;;9.68;72.92;94718.94;4977285;28;20281;-80
2022/11/30 03:21:37;;;;;;;2.20;2.00;;;;;;;9.69;73.02;94723.09;4961784;29;20567;-83
2022/11/30 03:24:05;;;;;;;1.90;1.80;;;;;;;9.70;73.22;94717.06;4956799;29;20577;-84
2022/11/30 03:26:31;;;;;;;2.43;2.10;;;;;;;9.62;72.99;94703.34;4954224;29;20779;-84
2022/11/30 03:28:58;;;;;;;2.20;2.00;;;;;;;9.72;73.33;94724.59;4953792;29;20249;-85
2022/11/30 03:31:25;;;;;;;1.80;1.70;;;;;;;9.71;73.22;94723.78;4961161;28;20219;-86
2022/11/30 03:33:53;;;;;;;2.73;2.53;;;;;;;9.73;73.08;94724.47;4953755;29;20614;-85
2022/11/30 03:36:20;;;;;;;1.80;1.70;;;;;;;9.70;73.18;94708.59;4953225;28;20852;-84
2022/11/30 03:38:48;;;;;;;1.90;1.80;;;;;;;9.74;73.05;94727.81;4953099;29;20186;-80
2022/11/30 03:41:17;;;;;;;3.07;1.87;;;;;;;9.70;73.15;94718.81;4953052;29;20201;-79
2022/11/30 03:43:44;;;;;;;2.63;1.90;;;;;;;9.74;73.13;94731.19;4953035;29;20186;-83
2022/11/30 03:46:11;;;;;;;2.10;1.93;;;;;;;9.61;73.13;94710.19;4952765;29;20186;-83
2022/11/30 03:48:40;;;;;;;2.10;2.00;;;;;;;9.74;73.29;94727.81;4952468;29;20190;-82
2022/11/30 03:51:07;;;;;;;2.70;1.80;;;;;;;9.74;73.08;94731.19;4952620;29;20190;-84
2022/11/30 03:53:34;;;;;;;1.97;1.80;;;;;;;9.73;73.11;94731.31;4952535;29;20209;-85
2022/11/30 03:56:05;;;;;;;1.60;1.50;;;;;;;9.74;73.35;94725.25;4953036;29;20183;-84
2022/11/30 03:58:32;;;;;;;1.90;1.80;;;;;;;9.70;73.34;94718.81;4952712;29;20194;-85
2022/11/30 04:01:03;;;;;;;2.33;1.77;;;;;;;9.73;73.19;94729.56;4952775;29;20574;-84
2022/11/30 04:03:31;;;;;;;2.60;1.70;;;;;;;9.73;73.36;94724.47;4952546;29;20269;-82
2022/11/30 04:05:58;;;;;;;1.40;1.40;;;;;;;9.73;73.43;94731.31;4952546;29;20234;-83
2022/11/30 04:08:26;;;;;;;2.00;1.90;;;;;;;9.54;73.25;94699.72;4952767;29;20202;-83
2022/11/30 04:10:53;;;;;;;1.90;1.70;;;;;;;9.70;73.53;94726.47;4952374;29;20209;-83
2022/11/30 04:13:23;;;;;;;1.87;1.77;;;;;;;9.72;73.35;94727.16;4952216;29;20214;-85
2022/11/30 04:15:51;;;;;;;1.80;1.70;;;;;;;9.50;73.46;94703.47;4952830;29;20198;-83
2022/11/30 04:18:19;;;;;;;1.70;1.60;;;;;;;9.70;73.54;94729.81;4953190;28;20240;-81
2022/11/30 04:20:47;;;;;;;1.77;1.67;;;;;;;9.70;73.40;94734.13;4953350;29;20198;-84
2022/11/30 04:23:13;;;;;;;1.70;1.60;;;;;;;9.69;73.50;94735.06;4953364;29;20198;-85
2022/11/30 04:25:41;;;;;;;1.60;1.50;;;;;;;9.71;73.59;94746.75;4953870;29;20191;-81
2022/11/30 04:28:09;;;;;;;2.03;1.80;;;;;;;9.46;73.54;94706.41;4953058;29;20633;-85
2022/11/30 04:30:38;;;;;;;1.73;1.63;;;;;;;9.69;73.60;94751.19;4953177;29;20201;-84
2022/11/30 04:33:05;;;;;;;1.80;1.70;;;;;;;9.70;73.63;94747.69;4952206;29;20257;-84
2022/11/30 04:35:33;;;;;;;1.80;1.70;;;;;;;9.61;73.47;94722.97;4952634;29;20186;-84
2022/11/30 04:38:00;;;;;;;1.80;1.70;;;;;;;9.59;73.64;94722.28;4951505;29;20213;-85
2022/11/30 04:40:27;;;;;;;1.73;1.63;;;;;;;9.68;73.68;94741.94;4952177;29;20201;-80
2022/11/30 04:42:54;;;;;;;1.63;1.53;;;;;;;9.66;73.64;94733.56;4951681;29;20220;-82
2022/11/30 04:45:21;;;;;;;1.53;1.43;;;;;;;9.67;73.63;94737.78;4952302;29;20205;-86
2022/11/30 04:47:49;;;;;;;1.70;1.60;;;;;;;9.68;73.75;94743.69;4951727;29;20190;-85
2022/11/30 04:50:16;;;;;;;1.60;1.50;;;;;;;9.68;73.92;94741.13;4952703;29;20245;-86
2022/11/30 04:52:43;;;;;;;1.93;1.83;;;;;;;9.66;73.72;94740.44;4952040;29;20206;-83
2022/11/30 04:55:10;;;;;;;1.50;1.40;;;;;;;9.64;73.81;94747.44;4951850;29;20221;-83
2022/11/30 04:57:36;;;;;;;1.60;1.50;;;;;;;9.67;73.85;94747.97;4950801;29;20647;-81
2022/11/30 05:00:05;;;;;;;2.40;1.60;;;;;;;9.65;73.78;94749.84;4950527;29;20202;-84
2022/11/30 05:02:32;;;;;;;1.37;1.37;;;;;;;9.65;73.72;94744.72;4951530;29;20647;-79
2022/11/30 05:05:00;;;;;;;1.80;1.70;;;;;;;9.49;73.82;94718.88;4952420;29;20282;-80
2022/11/30 05:07:27;;;;;;;1.90;1.80;;;;;;;9.45;73.80;94709.88;4953293;29;20585;-84
2022/11/30 05:09:53;;;;;;;1.60;1.50;;;;;;;9.63;74.07;94746.63;4968990;29;20190;-82
2022/11/30 05:12:20;;;;;;;1.70;1.60;;;;;;;9.63;73.84;94743.25;4968146;29;20190;-80
2022/11/30 05:14:47;;;;;;;1.50;1.50;;;;;;;9.61;74.09;94740.03;4956408;29;20694;-80
2022/11/30 05:17:14;;;;;;;1.37;1.37;;;;;;;9.64;73.99;94749.97;4952973;28;20198;-83
2022/11/30 05:19:41;;;;;;;1.73;1.63;;;;;;;9.63;73.92;94754.28;4952184;29;20191;-80
2022/11/30 05:22:09;;;;;;;1.43;1.43;;;;;;;9.61;73.92;94761.25;4951599;29;21060;-80
2022/11/30 05:24:36;;;;;;;8.33;1.47;;;;;;;9.84;100.00;94746.50;4947202;29;20191;-85
2022/11/30 05:27:03;;;;;;;2.13;1.70;;;;;;;10.65;100.00;94741.19;4950634;29;20187;-80
2022/11/30 05:29:30;;;;;;;3.23;2.00;;;;;;;11.25;100.00;94726.34;4951416;29;20666;-81
2022/11/30 05:31:56;;;;;;;1.90;1.77;;;;;;;11.85;100.00;94705.44;4950865;29;20186;-80
2022/11/30 05:34:23;;;;;;;3.07;1.70;;;;;;;12.67;100.00;94741.09;4953588;28;20246;-82
2022/11/30 05:36:51;;;;;;;3.17;1.90;;;;;;;13.20;100.00;94740.16;4956335;28;20193;-80
2022/11/30 05:39:19;;;;;;;2.00;1.87;;;;;;;13.66;100.00;94745.06;4953675;29;20198;-80
2022/11/30 05:41:46;;;;;;;5.27;2.00;;;;;;;14.02;98.66;94750.78;4953056;29;20675;-90
2022/11/30 05:44:14;;;;;;;3.20;1.77;;;;;;;14.04;95.42;94707.72;4952902;29;20202;-83
2022/11/30 05:46:41;;;;;;;10.23;1.70;;;;;;;14.45;93.82;94749.72;4953188;28;20194;-85
2022/11/30 05:49:08;;;;;;;3.83;2.20;;;;;;;14.46;92.36;94764.19;4954404;28;20194;-88
2022/11/30 05:51:34;;;;;;;2.00;1.83;;;;;;;14.32;89.81;94760.47;4953182;29;20202;-78
2022/11/30 05:54:01;;;;;;;3.43;2.13;;;;;;;14.14;87.05;94764.16;4952653;29;20238;-86
2022/11/30 05:56:29;;;;;;;2.53;2.07;;;;;;;13.92;84.84;94763.78;4952581;29;20202;-88
2022/11/30 05:58:56;;;;;;;2.73;1.87;;;;;;;13.69;82.81;94768.69;4952635;29;20190;-83
2022/11/30 06:01:25;;;;;;;2.20;2.00;;;;;;;13.46;81.77;94765.03;4952502;29;20206;-82
2022/11/30 06:03:52;;;;;;;2.17;2.07;;;;;;;13.30;80.92;94779.41;4953827;29;20593;-82
2022/11/30 06:06:19;;;;;;;2.43;1.90;;;;;;;13.08;80.53;94764.47;4953383;29;20194;-84
2022/11/30 06:08:48;;;;;;;2.00;1.80;;;;;;;12.95;79.96;94774.34;4952938;29;20198;-84
2022/11/30 06:11:15;;;;;;;1.80;1.70;;;;;;;12.78;79.86;94776.00;4956726;29;20202;-85
2022/11/30 06:13:44;;;;;;;2.47;1.80;;;;;;;12.62;79.54;94784.38;4961513;29;20314;-78
2022/11/30 06:16:10;;;;;;;2.67;1.70;;;;;;;12.47;79.40;94785.81;4962081;29;20232;-82
2022/11/30 06:18:38;;;;;;;1.90;1.80;;;;;;;12.33;79.16;94782.00;4958055;28;20234;-91
2022/11/30 06:21:07;;;;;;;2.37;1.80;;;;;;;11.96;78.87;94751.34;4965811;28;20195;-85
2022/11/30 06:23:34;;;;;;;1.90;1.80;;;;;;;12.05;79.02;94794.09;4957853;28;20201;-83
2022/11/30 06:26:04;;;;;;;2.33;1.90;;;;;;;11.89;78.68;94787.03;4957041;28;20203;-78
2022/11/30 06:28:35;;;;;;;2.73;1.87;;;;;;;11.83;78.73;94791.91;4956846;28;20204;-81
2022/11/30 06:31:05;;;;;;;1.73;1.63;;;;;;;11.64;78.73;94778.22;4964446;28;20760;-79
2022/11/30 06:33:33;;;;;;;2.70;1.80;;;;;;;11.62;78.91;94784.44;4954610;28;20186;-79
2022/11/30 06:36:00;;;;;;;1.80;1.70;;;;;;;11.53;78.86;94786.91;4964741;28;20202;-82
2022/11/30 06:38:27;;;;;;;2.87;1.97;;;;;;;11.43;78.76;94783.53;4964876;28;20205;-85
2022/11/30 06:40:54;;;;;;;1.57;1.53;;;;;;;11.36;78.97;94795.31;4961641;28;20567;-82
2022/11/30 06:43:21;;;;;;;3.13;2.00;;;;;;;11.33;78.98;94803.25;4966860;28;20190;-89
2022/11/30 06:45:47;;;;;;;1.80;1.70;;;;;;;11.27;79.31;94806.41;4962436;28;20217;-88
2022/11/30 06:48:16;;;;;;;3.27;1.90;;;;;;;11.17;79.12;94793.59;4958348;28;20191;-81
2022/11/30 06:50:43;;;;;;;2.53;1.80;;;;;;;11.03;79.19;94783.81;4963812;28;20198;-81
2022/11/30 06:53:09;;;;;;;2.07;1.97;;;;;;;11.01;79.38;94786.50;4965790;28;20289;-87
2022/11/30 06:55:37;;;;;;;2.40;1.80;;;;;;;11.07;79.52;94799.69;4956493;28;20594;-84
2022/11/30 06:58:07;;;;;;;2.00;1.90;;;;;;;10.96;79.44;94780.97;4969398;28;20201;-83
2022/11/30 07:00:35;;;;;;;2.00;1.53;;;;;;;10.97;79.63;94792.84;4970049;28;20735;-82
2022/11/30 07:03:02;;;;;;;2.23;2.03;;;;;;;10.87;79.59;94784.38;4959820;28;20199;-84
2022/11/30 07:05:33;;;;;;;2.17;1.80;;;;;;;10.90;79.62;94799.44;4965620;28;20266;-81
2022/11/30 07:08:00;;;;;;;2.27;1.90;;;;;;;10.88;79.60;94795.41;4970209;28;20198;-82
2022/11/30 07:10:27;;;;;;;1.77;1.67;;;;;;;10.86;79.53;94789.63;4966275;28;20205;-77
2022/11/30 07:12:54;;;;;;;2.07;1.90;;;;;;;10.85;79.63;94805.94;4970785;28;20240;-79
2022/11/30 07:15:21;;;;;;;2.10;2.00;;;;;;;10.82;79.60;94804.44;4971123;28;20751;-77
2022/11/30 07:17:48;;;;;;;3.03;1.67;;;;;;;10.80;79.67;94809.69;4968067;28;20238;-78
2022/11/30 07:20:15;;;;;;;2.50;1.77;;;;;;;10.78;79.86;94809.00;4970603;28;20667;-79
2022/11/30 07:22:43;;;;;;;1.93;1.70;;;;;;;10.64;79.51;94785.63;4956308;28;20216;-80
2022/11/30 07:27:55;;;;;;;2.17;2.00;;;;;;;10.75;79.68;94818.69;4963841;28;20279;-80
2022/11/30 07:30:21;;;;;;;2.10;2.00;;;;;;;10.72;79.34;94798.53;4960305;28;20398;-81
2022/11/30 07:32:48;;;;;;;1.80;1.70;;;;;;;10.69;79.18;94814.94;4958225;28;20213;-87
2022/11/30 07:35:16;;;;;;;1.97;1.87;;;;;;;10.68;79.14;94815.91;4963369;28;20229;-86
2022/11/30 07:37:44;;;;;;;1.87;1.77;;;;;;;10.67;79.18;94811.72;4959617;28;20194;-86
2022/11/30 07:40:12;;;;;;;2.77;2.23;;;;;;;10.66;79.13;94806.72;4967197;28;20198;-86
2022/11/30 07:42:39;;;;;;;2.10;1.90;;;;;;;10.58;78.98;94794.66;4965222;28;20636;-87
2022/11/30 07:45:06;;;;;;;2.07;1.97;;;;;;;10.59;78.67;94793.69;4966097;28;20202;-89
2022/11/30 07:47:33;;;;;;;2.77;2.00;;;;;;;10.63;78.54;94794.25;4968971;28;20593;-85
2022/11/30 07:50:00;;;;;;;2.43;2.23;;;;;;;10.59;78.49;94790.34;4959967;28;20186;-86
2022/11/30 07:52:27;;;;;;;2.37;2.00;;;;;;;10.43;78.16;94765.28;4969610;28;20197;-83
2022/11/30 07:54:55;;;;;;;1.83;1.73;;;;;;;10.61;77.92;94786.69;4961264;28;20233;-85
2022/11/30 07:57:22;;;;;;;4.73;2.53;;;;;;;10.66;77.72;94794.75;4955758;28;20642;-81
2022/11/30 07:59:50;;;;;;;2.50;2.30;;;;;;;10.64;77.62;94795.84;4953683;28;20213;-79
2022/11/30 08:02:17;;;;;;;3.00;2.20;;;;;;;10.69;77.50;94791.13;4956439;28;20191;-78
2022/11/30 08:04:44;;;;;;;2.37;2.10;;;;;;;10.63;77.30;94784.81;4962402;28;20209;-86
2022/11/30 08:07:10;;;;;;;2.13;2.00;;;;;;;10.68;77.29;94786.97;4958086;28;20210;-80
2022/11/30 08:09:37;;;;;;;2.47;2.27;;;;;;;10.68;77.02;94792.06;4970210;28;20193;-87
2022/11/30 08:12:07;;;;;;;3.73;2.13;;;;;;;10.67;77.08;94796.38;4962031;28;20200;-88
2022/11/30 08:14:33;;;;;;;4.50;2.10;;;;;;;10.67;76.77;94798.94;4965529;28;20217;-88
2022/11/30 08:17:00;;;;;;;3.87;2.70;;;;;;;10.63;76.71;94796.78;4969809;28;20225;-81
2022/11/30 08:19:27;;;;;;;4.37;1.90;;;;;;;10.70;76.47;94805.53;4979753;28;20292;-88
2022/11/30 08:21:54;;;;;;;2.10;1.90;;;;;;;10.70;76.51;94802.97;4970805;28;20197;-83
2022/11/30 08:24:21;;;;;;;2.27;2.07;;;;;;;10.71;76.40;94807.97;4955997;28;20201;-79
2022/11/30 08:26:51;;;;;;;2.20;2.00;;;;;;;10.71;76.40;94797.72;4962369;28;20202;-80
2022/11/30 08:29:19;;;;;;;2.47;2.27;;;;;;;10.71;76.30;94809.72;4963041;28;20277;-81
2022/11/30 08:31:46;;;;;;;2.23;2.03;;;;;;;10.71;76.11;94800.28;4964144;28;20192;-86
2022/11/30 08:34:14;;;;;;;1.90;1.80;;;;;;;10.69;75.73;94802.16;4956750;28;20187;-89
2022/11/30 08:36:42;;;;;;;2.53;2.33;;;;;;;10.71;75.79;94815.63;4958904;28;20233;-88
2022/11/30 08:39:12;;;;;;;2.07;1.97;;;;;;;10.73;75.58;94811.19;4957162;28;20206;-82
2022/11/30 08:41:39;;;;;;;2.10;1.90;;;;;;;10.62;75.60;94790.88;4961798;28;20187;-81
2022/11/30 08:44:07;;;;;;;2.27;2.07;;;;;;;10.73;75.39;94803.50;4956698;28;20198;-78
2022/11/30 08:46:36;;;;;;;4.20;1.73;;;;;;;11.12;100.00;94795.78;4957916;28;20190;-90
2022/11/30 08:49:03;;;;;;;2.00;1.80;;;;;;;11.76;100.00;94791.66;4963607;28;20197;-88
2022/11/30 08:51:30;;;;;;;5.77;2.07;;;;;;;12.17;100.00;94754.44;4965221;28;20225;-85
2022/11/30 08:53:58;;;;;;;2.37;1.90;;;;;;;13.01;100.00;94789.16;4968552;28;20194;-84
2022/11/30 08:56:24;;;;;;;2.27;2.10;;;;;;;13.39;100.00;94764.84;4961843;28;20656;-89
2022/11/30 08:58:51;;;;;;;2.77;2.10;;;;;;;14.08;99.80;94800.78;4970907;28;20198;-89
2022/11/30 09:01:20;;;;;;;2.07;1.87;;;;;;;14.53;96.73;94795.28;4963048;28;20190;-93
2022/11/30 09:03:50;;;;;;;2.53;1.83;;;;;;;14.93;93.67;94788.53;4975402;28;20198;-86
2022/11/30 09:06:19;;;;;;;2.13;1.73;;;;;;;15.32;90.90;94794.59;4978332;28;20218;-88
2022/11/30 09:08:48;;;;;;;1.63;1.53;;;;;;;15.55;88.56;94781.84;4970461;28;20183;-87
2022/11/30 09:11:16;;;;;;;2.33;1.93;;;;;;;15.98;86.68;94802.97;4973082;28;20197;-84
2022/11/30 09:13:44;;;;;;;2.67;1.57;;;;;;;16.16;84.62;94786.44;4969050;28;20213;-82
2022/11/30 09:16:13;;;;;;;2.70;1.43;;;;;;;16.52;83.29;94804.78;4966538;28;20226;-88
2022/11/30 09:18:40;;;;;;;1.77;1.67;;;;;;;16.76;81.75;94801.25;4967951;28;20229;-90
2022/11/30 09:21:11;;;;;;;2.87;1.70;;;;;;;16.95;80.39;94799.97;4970245;28;20284;-90
2022/11/30 09:23:38;;;;;;;1.50;1.40;;;;;;;17.08;79.06;94784.69;4971998;28;20193;-89
2022/11/30 09:26:07;;;;;;;2.00;1.90;;;;;;;17.33;78.18;94811.13;4967056;28;20195;-88
2022/11/30 09:28:35;;;;;;;1.90;1.70;;;;;;;17.36;77.83;94825.44;4963022;28;20195;-85
2022/11/30 09:31:03;;;;;;;2.90;1.70;;;;;;;17.14;76.64;94820.19;4967575;28;20206;-91
2022/11/30 09:33:30;;;;;;;3.20;1.83;;;;;;;16.86;75.19;94819.91;4968216;28;20191;-92
2022/11/30 09:35:58;;;;;;;4.07;2.13;;;;;;;16.53;74.20;94822.66;4964920;28;20210;-81
2022/11/30 09:38:26;;;;;;;3.53;1.83;;;;;;;16.38;73.84;94839.88;4961295;28;20206;-88
2022/11/30 09:40:55;;;;;;;2.60;1.70;;;;;;;16.05;73.61;94824.53;4959210;28;20669;-81
2022/11/30 09:43:35;;;;;;;2.70;1.70;;;;;;;15.73;73.08;94822.88;4955167;28;20194;-88
2022/11/30 09:46:07;;;;;;;2.33;2.13;;;;;;;15.52;73.47;94832.91;4961872;28;20581;-93
2022/11/30 09:48:51;;;;;;;1.67;1.57;;;;;;;15.31;73.19;94833.41;4971501;28;20744;-93
2022/11/30 09:51:25;;;;;;;2.60;2.20;;;;;;;15.06;73.46;94836.00;4973789;28;20190;-89
2022/11/30 09:53:56;;;;;;;2.33;2.00;;;;;;;14.85;73.54;94824.56;4973034;28;20194;-87
2022/11/30 09:56:27;;;;;;;2.30;1.90;;;;;;;14.65;73.69;94822.31;4961819;28;20215;-92
2022/11/30 09:58:59;;;;;;;2.63;1.83;;;;;;;14.47;73.92;94819.84;4959015;28;20206;-83
2022/11/30 10:01:26;;;;;;;1.93;1.83;;;;;;;14.21;74.16;94801.16;4972746;28;20197;-90
2022/11/30 10:03:53;;;;;;;2.63;1.80;;;;;;;14.17;74.41;94817.84;4966328;28;20196;-85
2022/11/30 10:06:27;;;;;;;2.53;1.70;;;;;;;14.00;74.31;94799.00;4961804;28;20261;-83
2022/11/30 10:09:06;;;;;;;2.10;1.90;;;;;;;13.92;74.64;94801.53;4960799;28;20186;-82
2022/11/30 10:11:48;;;;;;;1.67;1.57;;;;;;;13.80;74.68;94794.09;4964605;28;20190;-82
2022/11/30 10:14:39;;;;;;;2.40;1.80;;;;;;;13.69;74.86;94804.66;4960276;28;20194;-90
2022/11/30 10:17:18;;;;;;;2.20;2.00;;;;;;;13.54;74.74;94795.91;4884979;29;20203;-84
2022/11/30 10:20:03;;;;;;;3.00;1.90;;;;;;;13.42;74.81;94782.50;4905094;29;20717;-85
2022/11/30 10:22:46;;;;;;;2.10;1.90;;;;;;;13.34;75.06;94791.94;4903039;29;20208;-82
2022/11/30 10:25:22;;;;;;;2.23;2.03;;;;;;;13.22;75.11;94794.78;4906235;29;20206;-92
2022/11/30 10:27:51;;;;;;;2.43;1.90;;;;;;;13.09;75.23;94778.94;4909627;29;20251;-90
2022/11/30 10:30:22;;;;;;;2.50;2.30;;;;;;;13.03;74.95;94777.75;4908899;29;20710;-89
2022/11/30 10:32:52;;;;;;;1.70;1.60;;;;;;;12.90;75.03;94773.97;4907160;29;20625;-85
2022/11/30 10:35:28;;;;;;;2.30;2.10;;;;;;;12.86;75.15;94788.88;4907819;29;20698;-81
2022/11/30 10:37:58;;;;;;;3.30;2.10;;;;;;;12.78;75.07;94778.56;4903868;29;20235;-82
2022/11/30 10:40:34;;;;;;;2.17;1.87;;;;;;;12.70;75.15;94773.38;4908680;29;20202;-83
2022/11/30 10:43:13;;;;;;;2.50;2.00;;;;;;;12.61;75.07;94777.63;4914074;29;20238;-78
2022/11/30 10:45:47;;;;;;;2.03;1.87;;;;;;;12.48;75.09;94774.63;4915879;29;20227;-82
2022/11/30 10:48:17;;;;;;;2.30;2.10;;;;;;;12.38;74.84;94763.63;4907235;29;20239;-85
2022/11/30 10:50:44;;;;;;;2.20;2.00;;;;;;;12.40;74.99;94777.91;4905348;29;20203;-85
2022/11/30 10:53:13;;;;;;;2.80;1.90;;;;;;;12.38;74.69;94784.94;4904731;28;20659;-82
2022/11/30 10:55:44;;;;;;;2.13;1.80;;;;;;;12.33;74.67;94774.31;4979182;28;20221;-83
2022/11/30 10:58:20;;;;;;;1.90;1.80;;;;;;;12.29;74.74;94784.06;4982594;28;20189;-83
2022/11/30 11:00:59;;;;;;;2.57;1.90;;;;;;;12.24;74.79;94770.88;4993742;28;20224;-85
2022/11/30 11:03:26;;;;;;;2.93;2.20;;;;;;;12.18;74.84;94771.47;4996252;28;20204;-78
2022/11/30 11:06:09;;;;;;;2.03;1.90;;;;;;;12.13;74.64;94777.97;4991327;28;20210;-82
2022/11/30 11:08:36;;;;;;;3.40;2.07;;;;;;;11.96;74.62;94749.63;4982833;28;20199;-87
2022/11/30 11:11:33;;;;;;;2.10;2.00;;;;;;;12.00;74.67;94761.19;4975533;28;20784;-83
2022/11/30 11:14:16;;;;;;;3.13;2.00;;;;;;;11.67;74.48;94703.66;4980031;28;20202;-83
2022/11/30 11:16:52;;;;;;;2.67;1.87;;;;;;;11.91;74.61;94746.66;4984259;28;20210;-82
2022/11/30 11:19:32;;;;;;;2.10;1.90;;;;;;;11.87;74.59;94752.22;4981788;28;20229;-80
2022/11/30 11:22:02;;;;;;;2.60;2.40;;;;;;;11.85;74.58;94749.00;4993255;28;20627;-78
2022/11/30 11:24:29;;;;;;;2.20;2.00;;;;;;;11.82;74.58;94760.31;4980194;28;20185;-82
2022/11/30 11:26:58;;;;;;;2.30;1.97;;;;;;;11.74;74.44;94758.50;4982550;28;20701;-80
2022/11/30 11:29:34;;;;;;;2.63;1.70;;;;;;;11.72;74.39;94754.44;4978800;28;20189;-81
2022/11/30 11:32:19;;;;;;;2.33;1.80;;;;;;;11.65;74.42;94746.50;4980648;28;20186;-86
2022/11/30 11:34:46;;;;;;;2.67;2.10;;;;;;;11.60;74.46;94742.78;4980359;28;20216;-82
2022/11/30 11:37:19;;;;;;;2.10;1.90;;;;;;;11.66;74.22;94766.06;4980975;28;20225;-83
2022/11/30 11:40:00;;;;;;;2.23;2.00;;;;;;;11.63;74.40;94763.78;4985548;28;20210;-79
2022/11/30 11:42:32;;;;;;;2.30;2.00;;;;;;;11.61;74.53;94765.69;4997614;28;20203;-80
2022/11/30 11:45:00;;;;;;;2.20;2.00;;;;;;;11.49;74.30;94744.59;4998906;28;20269;-78
2022/11/30 11:47:33;;;;;;;2.17;1.97;;;;;;;11.57;74.41;94766.91;4991066;28;20572;-78
2022/11/30 11:50:23;;;;;;;2.70;1.93;;;;;;;11.49;74.40;94748.91;4990496;28;20221;-79